Time;durP1;ratioP1;P1;durP2;ratioP2;P2;SDS_P1;SDS_P2;PMS_P1;PMS_P2;Temp;Humidity;BMP_temperature;BMP_pressure;BME280_temperature;BME280_humidity;BME280_pressure;Samples;Min_cycle;Max_cycle;Signal;HPM_P1;HPM_P2
2022/11/14 00:00:10;;;;;;;14.50;12.85;;;;;;;5.29;90.05;101498.69;5051414;28;20067;-44
2022/11/14 00:02:36;;;;;;;16.77;12.95;;;;;;;5.29;89.93;101498.69;5049550;28;20017;-46
2022/11/14 00:05:01;;;;;;;14.40;12.38;;;;;;;5.27;89.94;101490.84;5039340;28;20378;-46
2022/11/14 00:07:31;;;;;;;15.18;12.98;;;;;;;5.25;89.69;101487.44;5037514;28;20120;-45
2022/11/14 00:09:56;;;;;;;15.18;12.35;;;;;;;5.23;90.36;101488.41;5049822;28;20028;-47
2022/11/14 00:12:21;;;;;;;15.18;11.95;;;;;;;5.21;90.43;101479.72;5049350;28;20041;-46
2022/11/14 00:14:47;;;;;;;17.08;12.13;;;;;;;5.21;90.31;101487.63;5050966;28;20132;-46
2022/11/14 00:17:12;;;;;;;14.48;12.23;;;;;;;5.15;90.30;101481.72;5050209;28;20029;-46
2022/11/14 00:19:37;;;;;;;14.48;12.43;;;;;;;5.16;90.48;101487.81;5049673;28;20098;-46
2022/11/14 00:22:02;;;;;;;14.30;11.57;;;;;;;5.14;90.31;101476.50;5044509;28;20033;-45
2022/11/14 00:24:28;;;;;;;15.98;12.15;;;;;;;5.12;89.95;101475.72;5051027;28;20462;-45
2022/11/14 00:26:53;;;;;;;13.00;11.48;;;;;;;5.11;90.21;101481.91;5045387;28;20029;-46
2022/11/14 00:29:18;;;;;;;13.88;11.38;;;;;;;5.09;90.16;101476.69;5045498;28;20383;-47
2022/11/14 00:31:44;;;;;;;13.77;12.13;;;;;;;5.08;90.19;101477.63;5044868;28;20123;-46
2022/11/14 00:34:09;;;;;;;15.25;10.80;;;;;;;5.07;90.08;101483.81;5049671;28;20020;-45
2022/11/14 00:36:35;;;;;;;14.57;11.57;;;;;;;5.06;90.26;101475.97;5040012;28;20029;-46
2022/11/14 00:39:00;;;;;;;14.80;11.95;;;;;;;5.05;90.06;101463.75;5049456;28;20116;-46
2022/11/14 00:41:25;;;;;;;13.82;11.18;;;;;;;5.04;90.08;101469.94;5051270;28;20033;-48
2022/11/14 00:43:51;;;;;;;15.82;10.98;;;;;;;5.01;89.76;101460.38;5039657;28;20530;-45
2022/11/14 00:46:16;;;;;;;13.80;11.13;;;;;;;5.00;89.72;101472.69;5051004;28;20041;-44
2022/11/14 00:48:42;;;;;;;12.70;10.63;;;;;;;4.98;89.58;101468.44;5050317;28;20025;-45
2022/11/14 00:51:07;;;;;;;15.00;10.27;;;;;;;4.96;89.56;101465.88;5046752;28;20064;-45
2022/11/14 00:53:32;;;;;;;13.35;10.68;;;;;;;4.96;89.69;101465.00;5050920;28;20087;-44
2022/11/14 00:55:57;;;;;;;13.48;10.63;;;;;;;4.95;89.48;101455.41;5050653;28;20104;-44
2022/11/14 00:58:23;;;;;;;13.73;11.20;;;;;;;4.91;89.49;101443.28;5050708;28;20079;-45
2022/11/14 01:00:48;;;;;;;14.27;10.88;;;;;;;4.89;89.34;101445.13;5044962;28;20067;-44
2022/11/14 01:03:13;;;;;;;13.65;10.85;;;;;;;4.86;89.60;101448.72;5050197;28;20039;-46
2022/11/14 01:05:44;;;;;;;12.40;10.60;;;;;;;4.84;89.64;101444.47;5039684;28;20036;-46
2022/11/14 01:08:10;;;;;;;16.00;10.70;;;;;;;4.82;89.41;101432.22;5048099;28;20044;-45
2022/11/14 01:10:44;;;;;;;13.43;10.70;;;;;;;4.80;89.55;101438.50;5050484;28;20029;-47
2022/11/14 01:13:10;;;;;;;12.80;10.65;;;;;;;4.78;89.64;101435.03;5050852;28;20075;-45
2022/11/14 01:15:46;;;;;;;12.52;10.10;;;;;;;4.76;89.19;101427.25;5050739;28;20056;-44
2022/11/14 01:18:18;;;;;;;14.23;10.45;;;;;;;4.73;89.57;101427.38;5042427;28;20058;-45
2022/11/14 01:20:45;;;;;;;13.23;10.45;;;;;;;4.70;89.50;101424.88;5049917;28;20025;-45
2022/11/14 01:23:12;;;;;;;13.48;10.15;;;;;;;4.69;88.87;101425.78;5057551;28;20505;-46
2022/11/14 01:25:39;;;;;;;13.90;10.85;;;;;;;4.67;88.83;101422.34;5040961;28;20299;-45
2022/11/14 01:28:06;;;;;;;11.07;9.95;;;;;;;4.66;89.12;101409.25;5050269;28;20029;-45
2022/11/14 01:30:32;;;;;;;13.55;10.43;;;;;;;4.64;88.49;101414.59;5042664;28;20089;-46
2022/11/14 01:32:57;;;;;;;12.93;10.43;;;;;;;4.64;88.92;101415.44;5054131;28;20072;-45
2022/11/14 01:35:22;;;;;;;12.23;9.63;;;;;;;4.63;89.08;101410.28;5054700;28;20039;-45
2022/11/14 01:37:48;;;;;;;12.60;9.95;;;;;;;4.60;88.62;101410.41;5053968;28;20021;-47
2022/11/14 01:40:13;;;;;;;14.30;10.15;;;;;;;4.58;88.65;101410.47;5052651;28;20036;-45
2022/11/14 01:42:38;;;;;;;11.63;9.13;;;;;;;4.56;88.64;101403.53;5054063;28;20074;-44
2022/11/14 01:45:41;;;;;;;12.88;9.80;;;;;;;4.56;88.21;101407.03;5052102;28;20486;-45
2022/11/14 01:48:19;;;;;;;12.23;9.85;;;;;;;4.54;88.27;101408.88;5048224;28;20112;-45
2022/11/14 01:50:46;;;;;;;13.65;9.85;;;;;;;4.50;88.75;101403.81;5053629;28;20432;-47
2022/11/14 01:53:11;;;;;;;13.25;9.32;;;;;;;4.48;88.60;101409.13;5053765;28;20036;-45
2022/11/14 01:55:36;;;;;;;12.48;9.25;;;;;;;4.44;88.66;101397.03;5051307;28;20591;-46
2022/11/14 01:58:02;;;;;;;10.82;8.98;;;;;;;4.42;88.70;101398.88;5053689;28;20036;-46
2022/11/14 02:00:27;;;;;;;11.45;9.10;;;;;;;4.37;88.68;101403.47;5053941;28;20013;-46
2022/11/14 02:02:54;;;;;;;12.07;9.20;;;;;;;4.36;88.65;101389.44;5053662;28;20036;-46
2022/11/14 02:05:20;;;;;;;12.40;8.98;;;;;;;4.35;88.79;101392.16;5034120;28;20040;-46
2022/11/14 02:07:46;;;;;;;13.63;9.73;;;;;;;4.32;88.67;101387.88;5036941;28;20399;-46
2022/11/14 02:10:18;;;;;;;11.20;8.85;;;;;;;4.29;88.52;101388.00;5040317;28;20025;-45
2022/11/14 02:12:44;;;;;;;11.82;9.43;;;;;;;4.25;88.84;101389.06;5037286;28;20053;-46
2022/11/14 02:15:10;;;;;;;12.13;9.70;;;;;;;4.23;88.79;101380.34;5043864;28;20107;-46
2022/11/14 02:17:36;;;;;;;10.82;9.13;;;;;;;4.18;88.38;101379.69;5048355;28;20471;-45
2022/11/14 02:20:10;;;;;;;11.13;9.60;;;;;;;4.16;88.95;101376.28;5053475;28;20143;-46
2022/11/14 02:22:40;;;;;;;11.88;9.02;;;;;;;4.13;89.18;101371.13;5054688;28;20029;-44
2022/11/14 02:25:07;;;;;;;11.88;9.13;;;;;;;4.10;89.22;101369.50;5053958;28;20108;-46
2022/11/14 02:27:34;;;;;;;11.20;9.18;;;;;;;4.07;89.00;101369.63;5050891;28;20032;-45
2022/11/14 02:30:12;;;;;;;13.30;9.05;;;;;;;4.05;89.27;101367.06;5054434;28;20039;-45
2022/11/14 02:32:37;;;;;;;11.55;9.32;;;;;;;4.02;89.33;101359.28;5055713;28;20113;-44
2022/11/14 02:35:03;;;;;;;11.27;8.70;;;;;;;3.99;89.33;101363.84;5054423;28;20029;-45
2022/11/14 02:37:28;;;;;;;13.88;9.00;;;;;;;3.96;88.95;101366.56;5046758;28;20391;-46
2022/11/14 02:39:54;;;;;;;12.45;9.25;;;;;;;3.91;88.99;101366.75;5054438;28;20036;-45
2022/11/14 02:42:19;;;;;;;13.55;8.70;;;;;;;3.93;89.27;101367.56;5041825;28;20013;-45
2022/11/14 02:44:44;;;;;;;11.70;8.77;;;;;;;3.90;88.86;101365.06;5054095;28;20037;-46
2022/11/14 02:47:09;;;;;;;11.63;9.20;;;;;;;3.88;89.13;101365.13;5053760;28;20051;-44
2022/11/14 02:49:35;;;;;;;10.13;8.55;;;;;;;3.88;89.00;101361.63;5047318;28;20033;-45
2022/11/14 02:52:00;;;;;;;13.00;8.30;;;;;;;3.87;88.75;101350.25;5053541;28;20021;-45
2022/11/14 02:54:25;;;;;;;11.73;8.75;;;;;;;3.85;88.52;101354.72;5048903;28;20053;-45
2022/11/14 02:56:51;;;;;;;11.88;9.18;;;;;;;3.83;88.73;101346.06;5054095;28;20033;-45
2022/11/14 02:59:16;;;;;;;12.90;9.18;;;;;;;3.82;89.06;101348.75;5054099;28;20017;-45
2022/11/14 03:01:41;;;;;;;10.95;8.60;;;;;;;3.79;88.82;101347.09;5053558;28;20451;-46
2022/11/14 03:04:06;;;;;;;12.07;8.77;;;;;;;3.75;88.49;101342.00;5046941;28;20033;-45
2022/11/14 03:06:32;;;;;;;11.48;8.93;;;;;;;3.74;88.87;101340.31;5051264;28;20025;-45
2022/11/14 03:08:57;;;;;;;10.45;8.38;;;;;;;3.70;89.36;101336.97;5053906;28;20025;-46
2022/11/14 03:11:22;;;;;;;10.38;8.32;;;;;;;3.67;88.81;101334.47;5053512;28;20436;-45
2022/11/14 03:13:48;;;;;;;11.93;8.82;;;;;;;3.64;88.75;101338.03;5053600;28;20149;-44
2022/11/14 03:16:13;;;;;;;10.77;8.48;;;;;;;3.64;88.64;101334.56;5040120;28;20029;-45
2022/11/14 03:18:39;;;;;;;11.98;7.78;;;;;;;3.59;88.14;101329.50;5053739;28;20036;-45
2022/11/14 03:21:09;;;;;;;11.68;8.02;;;;;;;3.57;88.88;101338.38;5049134;28;20070;-45
2022/11/14 03:23:35;;;;;;;11.10;8.77;;;;;;;3.52;88.38;101336.75;5053555;28;20044;-45
2022/11/14 03:26:02;;;;;;;11.20;8.45;;;;;;;3.50;89.44;101328.09;5050619;28;20017;-44
2022/11/14 03:28:27;;;;;;;12.35;8.88;;;;;;;3.48;89.29;101329.94;5044906;28;20036;-46
2022/11/14 03:30:53;;;;;;;14.07;8.98;;;;;;;3.45;88.99;101323.94;5051457;28;20033;-46
2022/11/14 03:33:18;;;;;;;11.95;9.23;;;;;;;3.44;89.51;101325.69;5052227;28;20029;-47
2022/11/14 03:35:44;;;;;;;16.15;8.30;;;;;;;3.43;89.65;101325.75;5051994;28;20490;-46
2022/11/14 03:38:09;;;;;;;16.13;8.80;;;;;;;3.43;89.61;101328.38;5045186;28;20028;-48
2022/11/14 03:40:38;;;;;;;12.38;8.07;;;;;;;3.39;89.95;101318.94;5052961;28;20013;-49
2022/11/14 03:43:04;;;;;;;11.95;7.90;;;;;;;3.37;90.06;101321.63;5045912;28;20024;-46
2022/11/14 03:45:29;;;;;;;11.73;8.70;;;;;;;3.35;90.00;101320.81;5051557;28;20036;-46
2022/11/14 03:47:54;;;;;;;11.20;8.40;;;;;;;3.32;89.70;101327.03;5053337;28;20100;-47
2022/11/14 03:50:20;;;;;;;10.35;8.13;;;;;;;3.31;89.83;101324.47;5051539;28;20040;-46
2022/11/14 03:52:47;;;;;;;9.55;8.38;;;;;;;3.32;89.73;101321.78;5044779;28;20041;-45
2022/11/14 03:55:13;;;;;;;11.30;9.10;;;;;;;3.27;89.97;101320.25;5052208;28;20021;-47
2022/11/14 03:57:38;;;;;;;11.18;8.02;;;;;;;3.29;89.90;101318.41;5051113;28;20043;-45
2022/11/14 04:00:04;;;;;;;11.13;8.43;;;;;;;3.25;89.98;101314.22;5053039;28;20033;-45
2022/11/14 04:02:29;;;;;;;9.80;7.68;;;;;;;3.20;89.49;101310.88;5052610;28;20455;-45
2022/11/14 04:04:54;;;;;;;13.50;8.45;;;;;;;3.21;89.89;101310.84;5052459;28;20041;-45
2022/11/14 04:07:20;;;;;;;11.38;8.68;;;;;;;3.18;90.15;101305.72;5047526;28;20034;-45
2022/11/14 04:09:46;;;;;;;11.88;8.45;;;;;;;3.15;89.97;101296.19;5051910;28;20091;-45
2022/11/14 04:12:11;;;;;;;10.68;8.27;;;;;;;3.14;89.96;101297.09;5052496;28;20048;-44
2022/11/14 04:14:36;;;;;;;11.68;8.45;;;;;;;3.11;90.13;101299.84;5047818;28;20014;-46
2022/11/14 04:17:01;;;;;;;12.80;8.60;;;;;;;3.10;90.45;101290.25;5043670;28;20040;-47
2022/11/14 04:19:27;;;;;;;11.25;8.65;;;;;;;3.10;90.26;101297.28;5052421;28;20032;-44
2022/11/14 04:21:52;;;;;;;10.88;8.20;;;;;;;3.07;89.98;101295.63;5052639;28;20508;-45
2022/11/14 04:24:17;;;;;;;12.63;8.52;;;;;;;3.07;89.54;101290.38;5051033;28;20032;-45
2022/11/14 04:26:42;;;;;;;9.10;7.45;;;;;;;3.07;89.58;101287.75;5052828;28;20032;-46
2022/11/14 04:29:08;;;;;;;11.98;7.78;;;;;;;3.06;89.46;101286.03;5052205;28;20425;-45
2022/11/14 04:31:33;;;;;;;10.68;7.70;;;;;;;3.04;88.73;101282.63;5048327;28;20021;-46
2022/11/14 04:33:58;;;;;;;11.13;7.70;;;;;;;3.01;89.05;101287.97;5049478;28;20464;-45
2022/11/14 04:36:23;;;;;;;10.15;8.48;;;;;;;2.99;88.87;101275.84;5052090;28;20028;-45
2022/11/14 04:38:49;;;;;;;11.18;7.85;;;;;;;2.95;88.58;101280.34;5050954;28;20114;-44
2022/11/14 04:41:14;;;;;;;9.85;7.50;;;;;;;2.90;88.45;101272.66;5044802;28;20476;-44
2022/11/14 04:43:39;;;;;;;9.60;7.63;;;;;;;2.89;88.60;101272.72;5047487;28;20166;-46
2022/11/14 04:46:05;;;;;;;11.07;8.32;;;;;;;2.83;88.56;101272.91;5051022;28;20036;-45
2022/11/14 04:48:30;;;;;;;10.05;7.95;;;;;;;2.81;88.88;101269.50;5044328;28;20064;-46
2022/11/14 04:50:55;;;;;;;11.07;8.40;;;;;;;2.80;88.90;101273.03;5052337;28;20043;-45
2022/11/14 04:53:20;;;;;;;10.27;7.60;;;;;;;2.77;88.98;101274.03;5051690;28;20017;-45
2022/11/14 04:55:46;;;;;;;8.70;7.50;;;;;;;2.74;88.65;101267.09;5051552;28;20029;-47
2022/11/14 04:58:11;;;;;;;11.15;8.23;;;;;;;2.73;89.00;101265.41;5045541;28;20056;-45
2022/11/14 05:00:36;;;;;;;10.35;8.00;;;;;;;2.72;89.00;101268.94;5052014;28;20029;-45
2022/11/14 05:03:02;;;;;;;12.43;8.38;;;;;;;2.70;89.67;101262.06;5048552;28;20029;-46
2022/11/14 05:05:27;;;;;;;12.80;8.73;;;;;;;2.66;89.45;101271.78;5049960;28;20621;-45
2022/11/14 05:07:53;;;;;;;11.20;8.48;;;;;;;2.64;89.98;101272.75;5051663;28;20029;-45
2022/11/14 05:10:18;;;;;;;12.15;8.75;;;;;;;2.61;90.61;101265.00;5056141;28;20471;-46
2022/11/14 05:12:44;;;;;;;11.48;8.43;;;;;;;2.59;90.50;101265.91;5053561;28;20051;-46
2022/11/14 05:15:09;;;;;;;13.77;8.05;;;;;;;2.57;91.03;101257.25;5048093;28;20021;-45
2022/11/14 05:17:34;;;;;;;15.60;9.32;;;;;;;2.58;91.67;101248.47;5051734;28;20102;-46
2022/11/14 05:20:00;;;;;;;11.30;9.13;;;;;;;2.59;91.95;101249.31;5047661;28;20103;-44
2022/11/14 05:22:25;;;;;;;12.45;8.82;;;;;;;2.56;91.83;101247.66;5056612;28;20076;-45
2022/11/14 05:24:50;;;;;;;15.25;8.90;;;;;;;2.57;91.54;101245.91;5056086;28;20033;-46
2022/11/14 05:27:15;;;;;;;11.88;8.60;;;;;;;2.56;92.11;101234.53;5055910;28;20413;-49
2022/11/14 05:29:41;;;;;;;12.88;8.70;;;;;;;2.56;91.98;101236.31;5045851;28;20025;-47
2022/11/14 05:32:06;;;;;;;14.57;8.10;;;;;;;2.55;92.29;101235.47;5055737;28;20078;-44
2022/11/14 05:34:31;;;;;;;11.88;9.60;;;;;;;2.52;91.83;101230.34;5056124;28;20363;-48
2022/11/14 05:36:57;;;;;;;13.55;9.30;;;;;;;2.52;92.59;101235.59;5052805;28;20089;-45
2022/11/14 05:39:22;;;;;;;13.15;8.93;;;;;;;2.52;92.33;101237.34;5055295;28;20471;-47
2022/11/14 05:41:47;;;;;;;13.50;9.32;;;;;;;2.51;92.73;101233.84;5051199;28;20025;-46
2022/11/14 05:44:12;;;;;;;12.40;8.90;;;;;;;2.53;92.78;101231.19;5055525;28;20025;-48
2022/11/14 05:46:38;;;;;;;12.60;9.07;;;;;;;2.51;92.96;101225.16;5055481;28;20057;-45
2022/11/14 05:49:03;;;;;;;14.35;9.63;;;;;;;2.51;93.33;101230.38;5059343;28;20028;-49
2022/11/14 05:51:28;;;;;;;12.98;9.07;;;;;;;2.52;93.41;101239.97;5060041;28;20485;-49
2022/11/14 05:53:54;;;;;;;14.32;9.13;;;;;;;2.51;93.35;101239.09;5051365;28;20021;-46
2022/11/14 05:56:19;;;;;;;13.40;9.30;;;;;;;2.51;93.11;101240.88;5050269;28;20021;-45
2022/11/14 05:58:44;;;;;;;13.20;9.20;;;;;;;2.52;93.52;101242.59;5053201;28;20102;-45
2022/11/14 06:01:16;;;;;;;16.63;9.05;;;;;;;2.53;93.43;101237.31;5054574;28;20055;-45
2022/11/14 06:03:43;;;;;;;13.57;8.77;;;;;;;2.52;92.86;101235.59;5053551;28;20112;-44
2022/11/14 06:06:12;;;;;;;13.13;9.23;;;;;;;2.51;92.71;101231.25;5055085;28;20111;-46
2022/11/14 06:08:38;;;;;;;15.90;9.13;;;;;;;2.52;92.47;101232.97;5055960;28;20017;-47
2022/11/14 06:11:05;;;;;;;13.77;8.90;;;;;;;2.53;92.56;101228.56;5052954;28;20031;-45
2022/11/14 06:13:32;;;;;;;12.43;9.90;;;;;;;2.54;92.43;101225.03;5054871;28;20072;-45
2022/11/14 06:16:02;;;;;;;11.52;8.32;;;;;;;2.53;92.38;101228.56;5053827;28;20029;-46
2022/11/14 06:18:28;;;;;;;12.05;8.73;;;;;;;2.52;92.09;101230.34;5054527;28;20479;-44
2022/11/14 06:20:57;;;;;;;11.93;8.55;;;;;;;2.51;91.80;101230.38;5054657;28;20453;-45
2022/11/14 06:23:22;;;;;;;11.60;8.32;;;;;;;2.51;91.68;101238.25;5045610;28;20037;-45
2022/11/14 06:25:48;;;;;;;12.48;8.73;;;;;;;2.50;91.64;101236.53;5054602;28;20111;-45
2022/11/14 06:28:13;;;;;;;11.30;8.52;;;;;;;2.48;91.48;101238.38;5054805;28;20025;-44
2022/11/14 06:30:40;;;;;;;13.10;8.77;;;;;;;2.46;91.36;101233.19;5051151;28;20480;-45
2022/11/14 06:33:05;;;;;;;11.23;8.73;;;;;;;2.45;91.00;101233.22;5054904;28;20029;-44
2022/11/14 06:35:32;;;;;;;13.10;8.90;;;;;;;2.45;91.47;101228.88;5052593;28;20029;-44
2022/11/14 06:37:58;;;;;;;12.35;9.00;;;;;;;2.43;91.04;101224.56;5054438;28;20491;-45
2022/11/14 06:40:24;;;;;;;15.45;9.05;;;;;;;2.43;91.33;101227.19;5051589;28;20048;-45
2022/11/14 06:42:49;;;;;;;11.77;8.85;;;;;;;2.38;91.03;101225.59;5054761;28;20029;-45
2022/11/14 06:45:14;;;;;;;12.18;8.85;;;;;;;2.39;91.15;101229.06;5051313;28;20501;-45
2022/11/14 06:47:40;;;;;;;12.93;8.95;;;;;;;2.37;90.93;101234.38;5054134;28;20025;-45
2022/11/14 06:50:06;;;;;;;10.05;8.10;;;;;;;2.32;90.66;101236.31;5052024;28;20061;-45
2022/11/14 06:52:31;;;;;;;13.00;8.93;;;;;;;2.31;90.54;101238.97;5054603;28;20054;-46
2022/11/14 06:54:56;;;;;;;12.40;8.82;;;;;;;2.28;90.71;101242.59;5053869;28;20037;-44
2022/11/14 06:57:21;;;;;;;12.30;9.25;;;;;;;2.27;90.70;101246.09;5052651;28;20029;-46
2022/11/14 06:59:47;;;;;;;13.68;8.63;;;;;;;2.25;90.67;101244.44;5051275;28;20036;-45
2022/11/14 07:02:12;;;;;;;14.18;9.38;;;;;;;2.22;90.76;101246.25;5052938;28;20025;-45
2022/11/14 07:04:38;;;;;;;13.13;8.57;;;;;;;2.22;90.64;101248.03;5053715;28;20036;-48
2022/11/14 07:07:03;;;;;;;11.35;8.55;;;;;;;2.19;90.94;101248.13;5051896;28;20032;-44
2022/11/14 07:09:28;;;;;;;15.30;8.65;;;;;;;2.19;91.24;101256.00;5053717;28;20141;-46
2022/11/14 07:11:54;;;;;;;14.40;9.65;;;;;;;2.18;91.93;101249.91;5053849;28;20049;-45
2022/11/14 07:14:19;;;;;;;13.30;9.45;;;;;;;2.19;91.62;101256.00;5045987;28;20045;-46
2022/11/14 07:16:44;;;;;;;13.23;9.32;;;;;;;2.17;91.84;101256.06;5040154;28;20053;-49
2022/11/14 07:19:10;;;;;;;11.88;9.10;;;;;;;2.15;91.42;101252.63;5043605;28;20033;-48
2022/11/14 07:21:35;;;;;;;14.52;8.90;;;;;;;2.17;91.81;101255.22;5044396;28;20120;-45
2022/11/14 07:24:00;;;;;;;16.17;10.10;;;;;;;2.15;92.18;101244.78;5046076;28;20433;-45
2022/11/14 07:26:26;;;;;;;19.00;10.13;;;;;;;2.15;91.68;101259.63;5038852;28;20045;-45
2022/11/14 07:28:51;;;;;;;19.67;9.73;;;;;;;2.14;91.77;101256.16;5037443;28;20029;-46
2022/11/14 07:31:19;;;;;;;13.85;8.95;;;;;;;2.12;92.30;101247.50;5033927;28;20394;-46
2022/11/14 07:33:45;;;;;;;15.23;9.60;;;;;;;2.15;92.92;101244.78;5038026;28;20108;-45
2022/11/14 07:36:12;;;;;;;16.85;10.38;;;;;;;2.16;93.06;101245.63;5038447;28;20402;-45
2022/11/14 07:38:38;;;;;;;14.85;10.40;;;;;;;2.17;93.27;101247.34;5043161;28;20044;-46
2022/11/14 07:41:07;;;;;;;17.98;10.15;;;;;;;2.19;94.10;101242.91;5038201;28;20473;-45
2022/11/14 07:43:32;;;;;;;15.15;10.27;;;;;;;2.22;94.24;101235.78;5038880;28;20041;-45
2022/11/14 07:45:59;;;;;;;17.27;11.70;;;;;;;2.22;93.73;101233.16;5037895;28;20149;-44
2022/11/14 07:48:24;;;;;;;19.15;10.88;;;;;;;2.25;94.17;101228.72;5073925;28;20120;-46
2022/11/14 07:50:49;;;;;;;14.95;10.70;;;;;;;2.29;94.53;101222.47;5048283;28;20473;-45
2022/11/14 07:53:16;;;;;;;17.15;10.98;;;;;;;2.32;95.03;101223.19;5045317;28;20033;-45
2022/11/14 07:55:41;;;;;;;15.05;10.38;;;;;;;2.33;95.00;101226.66;5048225;28;20033;-46
2022/11/14 07:58:07;;;;;;;14.23;10.70;;;;;;;2.37;95.11;101226.50;5039035;28;20199;-46
2022/11/14 08:00:32;;;;;;;16.35;10.50;;;;;;;2.42;95.29;101221.09;5037025;28;20032;-46
2022/11/14 08:02:57;;;;;;;21.15;11.13;;;;;;;2.46;95.47;101222.69;5038827;28;20041;-46
2022/11/14 08:05:22;;;;;;;21.77;11.32;;;;;;;2.49;95.68;101212.09;5036683;28;20065;-46
2022/11/14 08:07:50;;;;;;;20.27;10.95;;;;;;;2.56;95.82;101210.09;5033724;28;20075;-46
2022/11/14 08:10:16;;;;;;;17.10;10.40;;;;;;;2.63;96.47;101214.22;5036165;28;20498;-46
2022/11/14 08:12:42;;;;;;;18.45;11.10;;;;;;;2.71;96.41;101213.91;5036086;28;20065;-46
2022/11/14 08:15:09;;;;;;;17.58;11.38;;;;;;;2.76;96.23;101207.59;5032288;28;20041;-46
2022/11/14 08:17:36;;;;;;;16.45;11.82;;;;;;;2.85;96.34;101216.88;5036761;28;20044;-45
2022/11/14 08:20:02;;;;;;;16.63;11.60;;;;;;;2.91;96.09;101197.41;5036893;28;20033;-45
2022/11/14 08:22:27;;;;;;;17.25;10.98;;;;;;;2.95;96.17;101192.00;5036330;28;20055;-45
2022/11/14 08:24:53;;;;;;;15.93;10.80;;;;;;;3.00;96.05;101194.44;5038314;28;20538;-48
2022/11/14 08:27:18;;;;;;;15.75;11.75;;;;;;;3.08;96.15;101194.13;5039214;28;20029;-45
2022/11/14 08:29:43;;;;;;;15.23;11.13;;;;;;;3.14;96.22;101194.72;5047388;28;20541;-46
2022/11/14 08:32:09;;;;;;;15.18;11.35;;;;;;;3.19;96.17;101197.16;5046129;28;20037;-46
2022/11/14 08:34:35;;;;;;;19.55;11.20;;;;;;;3.27;96.37;101196.88;5042470;28;20545;-45
2022/11/14 08:37:01;;;;;;;17.35;11.07;;;;;;;3.32;96.20;101192.28;5031285;28;20447;-45
2022/11/14 08:39:27;;;;;;;16.48;11.10;;;;;;;3.40;96.34;101192.84;5038898;28;20028;-48
2022/11/14 08:41:52;;;;;;;17.42;11.45;;;;;;;3.48;95.83;101190.75;5045519;28;20021;-46
2022/11/14 08:44:18;;;;;;;16.00;10.90;;;;;;;3.55;96.31;101182.59;5033832;28;20104;-45
2022/11/14 08:46:43;;;;;;;15.23;11.40;;;;;;;3.65;96.30;101173.44;5051452;28;20367;-45
2022/11/14 08:49:08;;;;;;;15.02;11.32;;;;;;;3.74;95.87;101183.53;5047523;28;20394;-46
2022/11/14 08:51:33;;;;;;;16.00;11.05;;;;;;;3.85;95.60;101181.31;5033810;28;20036;-46
2022/11/14 08:53:59;;;;;;;14.02;10.32;;;;;;;3.95;95.51;101186.19;5043062;28;20013;-47
2022/11/14 08:56:24;;;;;;;15.82;11.30;;;;;;;4.07;95.42;101186.47;5050227;28;20025;-46
2022/11/14 08:58:49;;;;;;;14.48;10.70;;;;;;;4.19;94.94;101178.97;5031277;28;20033;-47
2022/11/14 09:01:14;;;;;;;17.48;11.15;;;;;;;4.32;94.90;101181.91;5042952;28;20024;-46
2022/11/14 09:03:40;;;;;;;15.18;10.73;;;;;;;4.46;94.59;101179.50;5047669;28;20090;-47
2022/11/14 09:06:05;;;;;;;14.40;10.63;;;;;;;4.63;94.27;101181.38;5052410;28;20474;-46
2022/11/14 09:08:30;;;;;;;16.23;10.77;;;;;;;4.77;94.06;101171.03;5055490;28;20098;-46
2022/11/14 09:11:00;;;;;;;15.93;11.20;;;;;;;4.92;93.76;101172.09;5032983;28;20103;-46
2022/11/14 09:13:26;;;;;;;13.77;10.30;;;;;;;5.07;93.10;101173.13;5031123;28;20559;-46
2022/11/14 09:15:51;;;;;;;17.08;11.02;;;;;;;5.24;93.30;101168.84;5032162;28;20029;-47
2022/11/14 09:18:17;;;;;;;13.98;10.30;;;;;;;5.35;92.09;101166.53;5032883;28;20033;-47
2022/11/14 09:20:42;;;;;;;17.40;11.38;;;;;;;5.49;91.52;101155.28;5032833;28;20048;-47
2022/11/14 09:23:08;;;;;;;15.10;10.63;;;;;;;5.64;91.15;101153.66;5033692;28;20120;-47
2022/11/14 09:25:35;;;;;;;14.82;11.20;;;;;;;5.78;90.50;101143.28;5031311;28;20100;-47
2022/11/14 09:28:07;;;;;;;15.27;10.57;;;;;;;5.96;89.89;101146.75;5031386;28;20021;-46
2022/11/14 09:30:34;;;;;;;16.17;10.88;;;;;;;6.11;89.36;101147.72;5048267;28;20045;-46
2022/11/14 09:33:02;;;;;;;12.98;9.90;;;;;;;6.25;88.75;101142.59;5048443;28;20238;-46
2022/11/14 09:35:27;;;;;;;15.27;10.38;;;;;;;6.39;88.48;101144.47;5045684;28;20025;-45
2022/11/14 09:38:01;;;;;;;17.95;11.02;;;;;;;6.54;88.04;101140.13;5048672;28;20040;-47
2022/11/14 09:40:27;;;;;;;15.05;10.70;;;;;;;6.72;87.04;101140.91;5045981;28;20028;-47
2022/11/14 09:42:53;;;;;;;13.95;10.63;;;;;;;6.80;85.58;101141.34;5048046;28;20399;-47
2022/11/14 09:45:18;;;;;;;13.50;10.37;;;;;;;6.97;85.76;101144.81;5045417;28;20034;-48
2022/11/14 09:47:57;;;;;;;16.50;10.73;;;;;;;7.08;84.85;101133.63;5045500;28;20048;-46
2022/11/14 09:50:27;;;;;;;15.02;10.57;;;;;;;7.22;84.81;101138.97;5043582;28;20075;-48
2022/11/14 09:52:59;;;;;;;14.25;10.43;;;;;;;7.34;84.23;101137.41;5050716;28;20455;-46
2022/11/14 09:55:30;;;;;;;15.05;10.23;;;;;;;7.47;83.49;101151.63;5052197;28;20025;-47
2022/11/14 09:57:56;;;;;;;12.52;9.60;;;;;;;7.56;82.73;101151.09;5049905;28;20033;-46
2022/11/14 10:00:37;;;;;;;13.50;9.90;;;;;;;7.67;82.78;101141.66;5035514;28;20363;-48
2022/11/14 10:03:18;;;;;;;14.32;10.02;;;;;;;7.78;81.99;101147.16;5035842;28;20032;-47
2022/11/14 10:05:58;;;;;;;14.93;10.70;;;;;;;7.83;81.29;101145.09;5035952;28;20021;-47
2022/11/14 10:08:52;;;;;;;14.77;9.82;;;;;;;7.94;81.99;101144.44;5037691;28;20093;-45
2022/11/14 10:11:28;;;;;;;13.73;10.50;;;;;;;8.04;81.23;101140.28;5051448;28;20065;-46
2022/11/14 10:14:21;;;;;;;15.27;10.35;;;;;;;8.17;81.38;101132.44;5051364;28;20048;-46
2022/11/14 10:16:56;;;;;;;12.13;9.45;;;;;;;8.27;80.26;101133.56;5035817;28;20045;-46
2022/11/14 10:19:45;;;;;;;14.77;10.38;;;;;;;8.36;79.52;101137.47;5042460;28;20040;-48
2022/11/14 10:22:25;;;;;;;12.95;10.68;;;;;;;8.45;80.77;101136.91;5051434;28;20040;-46
2022/11/14 10:25:13;;;;;;;13.98;10.75;;;;;;;8.63;79.39;101126.94;5045053;28;20112;-47
2022/11/14 10:27:53;;;;;;;18.33;10.23;;;;;;;8.79;79.06;101125.94;5049156;28;20025;-47
2022/11/14 10:30:18;;;;;;;;;;;;;;;8.87;81.51;101131.59;5053462;28;20115;-46
2022/11/14 10:33:15;;;;;;;15.18;9.95;;;;;;;9.02;78.75;101113.84;5052441;28;20386;-48
2022/11/14 10:35:48;;;;;;;15.70;10.70;;;;;;;9.08;76.18;101119.59;5047779;28;20033;-48
2022/11/14 10:38:23;;;;;;;14.40;10.63;;;;;;;9.23;77.16;101120.38;5050381;28;20032;-46
2022/11/14 10:41:00;;;;;;;16.73;10.32;;;;;;;9.36;77.98;101119.56;5044871;28;20359;-46
2022/11/14 10:43:46;;;;;;;13.20;10.55;;;;;;;9.41;76.12;101120.97;5049846;28;20035;-47
2022/11/14 10:46:31;;;;;;;14.90;9.98;;;;;;;9.50;75.80;101123.94;5048827;28;20046;-48
2022/11/14 10:48:58;;;;;;;17.30;11.38;;;;;;;9.62;74.79;101115.97;5048974;28;20355;-47
2022/11/14 10:51:35;;;;;;;15.75;10.73;;;;;;;9.62;74.14;101115.97;5049572;28;20485;-47
2022/11/14 10:54:18;;;;;;;16.02;10.77;;;;;;;9.64;74.61;101107.94;5046674;28;20041;-46
2022/11/14 10:56:51;;;;;;;15.85;10.88;;;;;;;9.68;74.16;101105.94;5049355;28;20382;-46
2022/11/14 10:59:16;;;;;;;16.13;10.25;;;;;;;9.81;73.69;101104.97;5048550;28;20027;-47
2022/11/14 11:01:54;;;;;;;12.15;10.27;;;;;;;9.93;73.54;101107.75;5049945;28;20500;-47
2022/11/14 11:04:27;;;;;;;16.13;10.68;;;;;;;9.97;73.13;101101.25;5043747;28;20372;-47
2022/11/14 11:07:08;;;;;;;13.85;10.93;;;;;;;10.05;73.11;101101.56;5046463;28;20063;-47
2022/11/14 11:12:22;;;;;;;14.02;10.88;;;;;;;10.18;71.37;101098.91;5049988;28;20047;-48
2022/11/14 11:15:07;;;;;;;12.30;10.80;;;;;;;10.22;71.16;101095.06;5045302;28;20022;-47
2022/11/14 11:17:32;;;;;;;13.35;10.63;;;;;;;10.19;70.48;101072.25;5033192;28;20767;-46
2022/11/14 11:20:23;;;;;;;14.98;11.13;;;;;;;10.26;72.48;101072.66;5041099;28;20073;-47
2022/11/14 11:23:00;;;;;;;16.00;10.75;;;;;;;10.30;71.20;101067.97;5038800;28;20034;-48
2022/11/14 11:25:28;;;;;;;15.00;11.18;;;;;;;10.35;70.73;101065.88;5037164;28;20505;-47